Estación Meteorológica Peña el Pijo (Robertgarden) [ 07/23/19 13:34:28 CEST ]

Fecha Hora Presion(HPa) Temp (°C) Humedad % Rocio (°C) Viento ( m/s) Direccion Lluvia 1Hora(mm) Lluvia 24H(mm) LLuvia Total(mm)
2019-Jan-04 01:01:43 1016.000 -1.7 80 -4.7         161.09
2019-Jan-04 02:03:26 1015.900 -1.9 81 -4.7         161.09
2019-Jan-04 03:02:02 1015.900 -2.1 82 -4.8         161.09
2019-Jan-04 04:01:45 1015.700 -2.7 82 -5.4         161.09
2019-Jan-04 05:01:43 1015.200 -3.1 82 -5.8         161.09
2019-Jan-04 06:01:56 1015.200 -3.1 82 -5.8         161.09
2019-Jan-04 07:01:59 1015.500 -3.6 81 -6.4         161.09
2019-Jan-04 08:02:04 1015.900 -3.9 81 -6.7         161.09
2019-Jan-04 09:01:45 1016.400 -3.9 81 -6.7         161.09
2019-Jan-04 10:01:57 1017.200 0.2 82 -2.5         161.09
2019-Jan-04 11:01:56 1017.400 6.3 68 0.8         161.09
2019-Jan-04 12:01:55 1016.600 10.8 47 -0.1         161.09
2019-Jan-04 13:01:50 1016.100 12.3 33 -3.6         161.09
2019-Jan-04 14:01:43 1015.400 15.2 27 -3.9         161.09
2019-Jan-04 15:01:52 1015.200 15.8 24 -5.0         161.09
2019-Jan-04 16:01:49 1015.800 14.6 25 -5.4         161.09
2019-Jan-04 17:01:51 1016.200 11.5 32 -4.7 0.7 NE     161.09
2019-Jan-04 18:01:51 1016.700 8.6 38 -5.0         161.09
2019-Jan-04 19:01:37 1017.800 4.6 45 -6.4         161.09
2019-Jan-04 20:01:45 1018.300 1.8 53 -6.8         161.09
2019-Jan-04 21:01:40 1018.700 0.3 58 -7.0         161.09
2019-Jan-04 22:01:53 1019.100 -0.7 61 -7.3         161.09
2019-Jan-04 23:02:03 1019.300 -1.3 63 -7.5         161.09

Temperatura Máxima:15°    Temperatura Mínima:-3°
Presión Máxima:1019.300 Hpa    Presión Mínima:1015.200 Hpa


Volver